sensor_id;sensor_type;location;lat;lon;timestamp;P1;durP1;ratioP1;P2;durP2;ratioP2
4232;SDS011;2130;48.472;11.934;2022-09-04T00:00:21;68.20;;;4.97;;
4232;SDS011;2130;48.472;11.934;2022-09-04T00:02:57;68.17;;;5.10;;
4232;SDS011;2130;48.472;11.934;2022-09-04T00:05:30;71.10;;;5.90;;
4232;SDS011;2130;48.472;11.934;2022-09-04T00:08:04;67.90;;;5.30;;
4232;SDS011;2130;48.472;11.934;2022-09-04T00:10:41;69.67;;;5.23;;
4232;SDS011;2130;48.472;11.934;2022-09-04T00:13:15;68.27;;;5.37;;
4232;SDS011;2130;48.472;11.934;2022-09-04T00:15:49;68.47;;;5.40;;
4232;SDS011;2130;48.472;11.934;2022-09-04T00:18:21;67.77;;;5.10;;
4232;SDS011;2130;48.472;11.934;2022-09-04T00:20:53;68.27;;;5.70;;
4232;SDS011;2130;48.472;11.934;2022-09-04T00:23:26;70.60;;;5.40;;
4232;SDS011;2130;48.472;11.934;2022-09-04T00:25:58;67.67;;;5.10;;
4232;SDS011;2130;48.472;11.934;2022-09-04T00:28:31;68.40;;;5.17;;
4232;SDS011;2130;48.472;11.934;2022-09-04T00:31:05;69.43;;;5.43;;
4232;SDS011;2130;48.472;11.934;2022-09-04T00:33:40;70.17;;;6.40;;
4232;SDS011;2130;48.472;11.934;2022-09-04T00:36:13;73.33;;;6.40;;
4232;SDS011;2130;48.472;11.934;2022-09-04T00:38:44;69.50;;;6.23;;
4232;SDS011;2130;48.472;11.934;2022-09-04T00:41:18;72.30;;;6.77;;
4232;SDS011;2130;48.472;11.934;2022-09-04T00:44:02;69.97;;;6.50;;
4232;SDS011;2130;48.472;11.934;2022-09-04T00:46:50;69.70;;;7.10;;
4232;SDS011;2130;48.472;11.934;2022-09-04T00:49:37;69.30;;;6.17;;
4232;SDS011;2130;48.472;11.934;2022-09-04T00:52:15;68.60;;;5.80;;
4232;SDS011;2130;48.472;11.934;2022-09-04T00:55:06;69.57;;;6.30;;
4232;SDS011;2130;48.472;11.934;2022-09-04T00:57:50;68.70;;;6.67;;
4232;SDS011;2130;48.472;11.934;2022-09-04T01:00:25;72.07;;;7.10;;
4232;SDS011;2130;48.472;11.934;2022-09-04T01:03:02;70.07;;;6.83;;
4232;SDS011;2130;48.472;11.934;2022-09-04T01:05:50;69.20;;;6.00;;
4232;SDS011;2130;48.472;11.934;2022-09-04T01:08:31;70.30;;;6.97;;
4232;SDS011;2130;48.472;11.934;2022-09-04T01:11:08;69.30;;;6.13;;
4232;SDS011;2130;48.472;11.934;2022-09-04T01:13:41;68.37;;;6.13;;
4232;SDS011;2130;48.472;11.934;2022-09-04T01:16:13;68.50;;;6.20;;
4232;SDS011;2130;48.472;11.934;2022-09-04T01:18:49;69.47;;;7.00;;
4232;SDS011;2130;48.472;11.934;2022-09-04T01:21:23;68.80;;;5.90;;
4232;SDS011;2130;48.472;11.934;2022-09-04T01:24:21;68.17;;;6.80;;
4232;SDS011;2130;48.472;11.934;2022-09-04T01:27:01;69.10;;;6.47;;
4232;SDS011;2130;48.472;11.934;2022-09-04T01:29:34;68.40;;;6.00;;
4232;SDS011;2130;48.472;11.934;2022-09-04T01:32:09;67.57;;;6.03;;
4232;SDS011;2130;48.472;11.934;2022-09-04T01:34:44;68.87;;;5.77;;
4232;SDS011;2130;48.472;11.934;2022-09-04T01:37:22;67.60;;;5.87;;
4232;SDS011;2130;48.472;11.934;2022-09-04T01:39:59;68.50;;;5.70;;
4232;SDS011;2130;48.472;11.934;2022-09-04T01:42:46;67.60;;;5.60;;
4232;SDS011;2130;48.472;11.934;2022-09-04T01:45:18;66.50;;;5.07;;
4232;SDS011;2130;48.472;11.934;2022-09-04T01:47:49;67.77;;;6.10;;
4232;SDS011;2130;48.472;11.934;2022-09-04T01:50:19;67.20;;;6.17;;
4232;SDS011;2130;48.472;11.934;2022-09-04T01:52:52;69.07;;;6.17;;
4232;SDS011;2130;48.472;11.934;2022-09-04T01:55:26;67.00;;;5.40;;
4232;SDS011;2130;48.472;11.934;2022-09-04T01:58:03;67.07;;;5.67;;
4232;SDS011;2130;48.472;11.934;2022-09-04T02:00:39;67.80;;;5.17;;
4232;SDS011;2130;48.472;11.934;2022-09-04T02:03:24;67.70;;;5.60;;
4232;SDS011;2130;48.472;11.934;2022-09-04T02:05:56;66.47;;;5.10;;
4232;SDS011;2130;48.472;11.934;2022-09-04T02:08:34;67.73;;;5.30;;
4232;SDS011;2130;48.472;11.934;2022-09-04T02:11:11;68.17;;;5.00;;
4232;SDS011;2130;48.472;11.934;2022-09-04T02:13:47;66.40;;;4.93;;
4232;SDS011;2130;48.472;11.934;2022-09-04T02:16:28;66.37;;;4.50;;
4232;SDS011;2130;48.472;11.934;2022-09-04T02:19:03;67.37;;;4.77;;
4232;SDS011;2130;48.472;11.934;2022-09-04T02:21:34;67.90;;;5.97;;
4232;SDS011;2130;48.472;11.934;2022-09-04T02:24:05;68.03;;;5.50;;
4232;SDS011;2130;48.472;11.934;2022-09-04T02:26:39;66.67;;;4.97;;
4232;SDS011;2130;48.472;11.934;2022-09-04T02:29:13;67.80;;;5.83;;
4232;SDS011;2130;48.472;11.934;2022-09-04T02:31:45;67.90;;;5.80;;
4232;SDS011;2130;48.472;11.934;2022-09-04T02:34:18;68.37;;;6.27;;
4232;SDS011;2130;48.472;11.934;2022-09-04T02:36:52;66.70;;;5.30;;
4232;SDS011;2130;48.472;11.934;2022-09-04T02:39:28;66.47;;;4.90;;
4232;SDS011;2130;48.472;11.934;2022-09-04T02:42:03;68.27;;;5.50;;
4232;SDS011;2130;48.472;11.934;2022-09-04T02:44:41;66.77;;;5.50;;
4232;SDS011;2130;48.472;11.934;2022-09-04T02:47:16;67.37;;;5.13;;
4232;SDS011;2130;48.472;11.934;2022-09-04T02:49:53;70.73;;;5.17;;
4232;SDS011;2130;48.472;11.934;2022-09-04T02:52:45;67.40;;;5.57;;
4232;SDS011;2130;48.472;11.934;2022-09-04T02:55:25;67.50;;;5.73;;
4232;SDS011;2130;48.472;11.934;2022-09-04T02:58:06;68.47;;;6.23;;
4232;SDS011;2130;48.472;11.934;2022-09-04T03:00:43;70.70;;;7.13;;
4232;SDS011;2130;48.472;11.934;2022-09-04T03:03:20;67.97;;;6.50;;
4232;SDS011;2130;48.472;11.934;2022-09-04T03:05:55;70.97;;;6.53;;
4232;SDS011;2130;48.472;11.934;2022-09-04T03:08:29;67.27;;;5.47;;
4232;SDS011;2130;48.472;11.934;2022-09-04T03:11:03;67.77;;;6.77;;
4232;SDS011;2130;48.472;11.934;2022-09-04T03:13:35;67.90;;;6.27;;
4232;SDS011;2130;48.472;11.934;2022-09-04T03:16:09;69.00;;;5.97;;
4232;SDS011;2130;48.472;11.934;2022-09-04T03:18:59;67.90;;;6.30;;
4232;SDS011;2130;48.472;11.934;2022-09-04T03:21:34;66.50;;;5.33;;
4232;SDS011;2130;48.472;11.934;2022-09-04T03:24:08;66.10;;;5.17;;
4232;SDS011;2130;48.472;11.934;2022-09-04T03:26:39;66.70;;;5.90;;
4232;SDS011;2130;48.472;11.934;2022-09-04T03:29:11;68.30;;;6.13;;
4232;SDS011;2130;48.472;11.934;2022-09-04T03:31:50;68.60;;;7.03;;
4232;SDS011;2130;48.472;11.934;2022-09-04T03:34:25;68.37;;;6.87;;
4232;SDS011;2130;48.472;11.934;2022-09-04T03:37:05;68.37;;;7.17;;
4232;SDS011;2130;48.472;11.934;2022-09-04T03:39:40;68.90;;;6.00;;
4232;SDS011;2130;48.472;11.934;2022-09-04T03:42:14;69.17;;;6.57;;
4232;SDS011;2130;48.472;11.934;2022-09-04T03:44:49;67.57;;;6.27;;
4232;SDS011;2130;48.472;11.934;2022-09-04T03:47:28;67.90;;;6.63;;
4232;SDS011;2130;48.472;11.934;2022-09-04T03:50:04;67.27;;;6.00;;
4232;SDS011;2130;48.472;11.934;2022-09-04T03:52:41;67.47;;;6.50;;
4232;SDS011;2130;48.472;11.934;2022-09-04T03:58:19;67.80;;;6.27;;
4232;SDS011;2130;48.472;11.934;2022-09-04T04:00:51;68.17;;;6.70;;
4232;SDS011;2130;48.472;11.934;2022-09-04T04:03:31;73.27;;;6.43;;
4232;SDS011;2130;48.472;11.934;2022-09-04T04:06:12;67.97;;;6.47;;
4232;SDS011;2130;48.472;11.934;2022-09-04T04:08:47;67.07;;;5.90;;
4232;SDS011;2130;48.472;11.934;2022-09-04T04:11:30;68.60;;;8.00;;
4232;SDS011;2130;48.472;11.934;2022-09-04T04:14:31;69.47;;;8.27;;
4232;SDS011;2130;48.472;11.934;2022-09-04T04:17:14;67.70;;;6.50;;
4232;SDS011;2130;48.472;11.934;2022-09-04T04:19:54;69.47;;;7.57;;
4232;SDS011;2130;48.472;11.934;2022-09-04T04:22:33;70.07;;;9.07;;
4232;SDS011;2130;48.472;11.934;2022-09-04T04:25:14;71.90;;;9.43;;
4232;SDS011;2130;48.472;11.934;2022-09-04T04:27:57;69.10;;;7.80;;
4232;SDS011;2130;48.472;11.934;2022-09-04T04:30:35;71.57;;;10.27;;
4232;SDS011;2130;48.472;11.934;2022-09-04T04:33:08;72.50;;;10.30;;
4232;SDS011;2130;48.472;11.934;2022-09-04T04:35:48;71.60;;;10.07;;
4232;SDS011;2130;48.472;11.934;2022-09-04T04:38:25;73.50;;;10.80;;
4232;SDS011;2130;48.472;11.934;2022-09-04T04:41:12;72.13;;;10.03;;
4232;SDS011;2130;48.472;11.934;2022-09-04T04:43:50;70.73;;;8.67;;
4232;SDS011;2130;48.472;11.934;2022-09-04T04:46:29;71.00;;;9.97;;
4232;SDS011;2130;48.472;11.934;2022-09-04T04:49:07;72.17;;;11.07;;
4232;SDS011;2130;48.472;11.934;2022-09-04T04:51:50;72.73;;;9.80;;
4232;SDS011;2130;48.472;11.934;2022-09-04T04:54:30;71.63;;;9.60;;
4232;SDS011;2130;48.472;11.934;2022-09-04T04:57:11;72.67;;;9.60;;
4232;SDS011;2130;48.472;11.934;2022-09-04T04:59:46;72.77;;;8.63;;
4232;SDS011;2130;48.472;11.934;2022-09-04T05:02:22;72.93;;;9.90;;
4232;SDS011;2130;48.472;11.934;2022-09-04T05:04:54;72.13;;;9.47;;
4232;SDS011;2130;48.472;11.934;2022-09-04T05:07:31;72.70;;;10.40;;
4232;SDS011;2130;48.472;11.934;2022-09-04T05:10:06;71.37;;;9.97;;
4232;SDS011;2130;48.472;11.934;2022-09-04T05:12:47;71.50;;;9.50;;
4232;SDS011;2130;48.472;11.934;2022-09-04T05:15:22;71.30;;;8.90;;
4232;SDS011;2130;48.472;11.934;2022-09-04T05:17:56;72.20;;;8.70;;
4232;SDS011;2130;48.472;11.934;2022-09-04T05:20:28;70.97;;;8.40;;
4232;SDS011;2130;48.472;11.934;2022-09-04T05:23:13;71.70;;;8.57;;
4232;SDS011;2130;48.472;11.934;2022-09-04T05:25:56;72.10;;;10.23;;
4232;SDS011;2130;48.472;11.934;2022-09-04T05:28:30;71.43;;;9.20;;
4232;SDS011;2130;48.472;11.934;2022-09-04T05:31:08;74.27;;;10.17;;
4232;SDS011;2130;48.472;11.934;2022-09-04T05:33:43;73.67;;;10.70;;
4232;SDS011;2130;48.472;11.934;2022-09-04T05:36:18;74.37;;;12.77;;
4232;SDS011;2130;48.472;11.934;2022-09-04T05:38:54;72.80;;;10.27;;
4232;SDS011;2130;48.472;11.934;2022-09-04T05:41:30;74.37;;;10.57;;
4232;SDS011;2130;48.472;11.934;2022-09-04T05:44:20;72.37;;;9.40;;
4232;SDS011;2130;48.472;11.934;2022-09-04T05:47:02;72.40;;;9.97;;
4232;SDS011;2130;48.472;11.934;2022-09-04T05:49:57;73.63;;;10.23;;
4232;SDS011;2130;48.472;11.934;2022-09-04T05:52:38;72.57;;;10.43;;
4232;SDS011;2130;48.472;11.934;2022-09-04T05:55:29;72.00;;;8.83;;
4232;SDS011;2130;48.472;11.934;2022-09-04T05:58:05;73.77;;;10.90;;
4232;SDS011;2130;48.472;11.934;2022-09-04T06:00:44;71.97;;;8.93;;
4232;SDS011;2130;48.472;11.934;2022-09-04T06:03:23;74.93;;;10.60;;
4232;SDS011;2130;48.472;11.934;2022-09-04T06:06:05;72.47;;;8.80;;
4232;SDS011;2130;48.472;11.934;2022-09-04T06:08:46;72.57;;;9.90;;
4232;SDS011;2130;48.472;11.934;2022-09-04T06:11:42;71.33;;;8.50;;
4232;SDS011;2130;48.472;11.934;2022-09-04T06:14:20;73.37;;;8.63;;
4232;SDS011;2130;48.472;11.934;2022-09-04T06:16:59;71.50;;;9.43;;
4232;SDS011;2130;48.472;11.934;2022-09-04T06:22:40;71.00;;;7.17;;
4232;SDS011;2130;48.472;11.934;2022-09-04T06:25:29;72.20;;;7.83;;
4232;SDS011;2130;48.472;11.934;2022-09-04T06:28:17;71.50;;;7.90;;
4232;SDS011;2130;48.472;11.934;2022-09-04T06:30:57;71.70;;;7.93;;
4232;SDS011;2130;48.472;11.934;2022-09-04T06:36:25;74.00;;;7.40;;
4232;SDS011;2130;48.472;11.934;2022-09-04T06:42:17;71.07;;;7.90;;
4232;SDS011;2130;48.472;11.934;2022-09-04T06:44:56;70.27;;;6.90;;
4232;SDS011;2130;48.472;11.934;2022-09-04T06:47:34;69.77;;;7.80;;
4232;SDS011;2130;48.472;11.934;2022-09-04T06:50:12;70.97;;;8.17;;
4232;SDS011;2130;48.472;11.934;2022-09-04T06:52:46;70.07;;;7.53;;
4232;SDS011;2130;48.472;11.934;2022-09-04T06:55:24;71.03;;;7.20;;
4232;SDS011;2130;48.472;11.934;2022-09-04T06:58:00;69.70;;;6.80;;
4232;SDS011;2130;48.472;11.934;2022-09-04T07:00:43;70.50;;;6.90;;
4232;SDS011;2130;48.472;11.934;2022-09-04T07:03:17;74.47;;;7.83;;
4232;SDS011;2130;48.472;11.934;2022-09-04T07:05:53;71.10;;;8.33;;
4232;SDS011;2130;48.472;11.934;2022-09-04T07:08:30;70.83;;;7.33;;
4232;SDS011;2130;48.472;11.934;2022-09-04T07:11:10;70.17;;;7.07;;
4232;SDS011;2130;48.472;11.934;2022-09-04T07:13:49;70.37;;;7.10;;
4232;SDS011;2130;48.472;11.934;2022-09-04T07:16:37;70.83;;;6.50;;
4232;SDS011;2130;48.472;11.934;2022-09-04T07:19:11;74.13;;;7.17;;
4232;SDS011;2130;48.472;11.934;2022-09-04T07:21:49;70.57;;;7.13;;
4232;SDS011;2130;48.472;11.934;2022-09-04T07:24:38;72.47;;;6.43;;
4232;SDS011;2130;48.472;11.934;2022-09-04T07:27:13;77.03;;;6.33;;
4232;SDS011;2130;48.472;11.934;2022-09-04T07:29:47;69.80;;;6.60;;
4232;SDS011;2130;48.472;11.934;2022-09-04T07:32:21;72.07;;;6.10;;
4232;SDS011;2130;48.472;11.934;2022-09-04T07:34:54;70.07;;;6.37;;
4232;SDS011;2130;48.472;11.934;2022-09-04T07:37:30;68.90;;;5.43;;
4232;SDS011;2130;48.472;11.934;2022-09-04T07:40:06;73.07;;;5.53;;
4232;SDS011;2130;48.472;11.934;2022-09-04T07:42:40;70.40;;;5.70;;
4232;SDS011;2130;48.472;11.934;2022-09-04T07:45:13;69.07;;;5.27;;
4232;SDS011;2130;48.472;11.934;2022-09-04T07:47:51;69.23;;;5.20;;
4232;SDS011;2130;48.472;11.934;2022-09-04T07:50:24;71.37;;;5.97;;
4232;SDS011;2130;48.472;11.934;2022-09-04T07:53:02;69.17;;;5.57;;
4232;SDS011;2130;48.472;11.934;2022-09-04T07:55:40;69.63;;;5.23;;
4232;SDS011;2130;48.472;11.934;2022-09-04T07:58:18;71.13;;;5.07;;
4232;SDS011;2130;48.472;11.934;2022-09-04T08:01:05;69.60;;;5.50;;
4232;SDS011;2130;48.472;11.934;2022-09-04T08:03:46;68.70;;;4.90;;
4232;SDS011;2130;48.472;11.934;2022-09-04T08:06:25;69.20;;;5.40;;
4232;SDS011;2130;48.472;11.934;2022-09-04T08:09:02;70.30;;;5.50;;
4232;SDS011;2130;48.472;11.934;2022-09-04T08:11:51;69.37;;;4.60;;
4232;SDS011;2130;48.472;11.934;2022-09-04T08:14:36;68.47;;;4.63;;
4232;SDS011;2130;48.472;11.934;2022-09-04T08:20:16;68.40;;;4.60;;
4232;SDS011;2130;48.472;11.934;2022-09-04T08:23:02;69.03;;;5.03;;
4232;SDS011;2130;48.472;11.934;2022-09-04T08:25:43;69.60;;;5.20;;
4232;SDS011;2130;48.472;11.934;2022-09-04T08:28:25;68.37;;;5.00;;
4232;SDS011;2130;48.472;11.934;2022-09-04T08:31:02;68.97;;;4.87;;
4232;SDS011;2130;48.472;11.934;2022-09-04T08:33:48;68.80;;;5.20;;
4232;SDS011;2130;48.472;11.934;2022-09-04T08:36:26;69.47;;;4.97;;
4232;SDS011;2130;48.472;11.934;2022-09-04T08:39:02;69.03;;;5.23;;
4232;SDS011;2130;48.472;11.934;2022-09-04T08:41:48;69.80;;;5.30;;
4232;SDS011;2130;48.472;11.934;2022-09-04T08:48:21;68.10;;;4.70;;
4232;SDS011;2130;48.472;11.934;2022-09-04T08:51:05;69.40;;;5.20;;
4232;SDS011;2130;48.472;11.934;2022-09-04T08:53:53;68.67;;;4.83;;
4232;SDS011;2130;48.472;11.934;2022-09-04T08:56:43;70.27;;;5.03;;
4232;SDS011;2130;48.472;11.934;2022-09-04T08:59:25;68.27;;;4.90;;
4232;SDS011;2130;48.472;11.934;2022-09-04T09:05:44;70.30;;;5.30;;
4232;SDS011;2130;48.472;11.934;2022-09-04T09:08:58;69.97;;;4.70;;
4232;SDS011;2130;48.472;11.934;2022-09-04T09:18:14;68.63;;;5.00;;
4232;SDS011;2130;48.472;11.934;2022-09-04T09:21:00;68.63;;;4.60;;
4232;SDS011;2130;48.472;11.934;2022-09-04T09:23:36;68.73;;;4.27;;
4232;SDS011;2130;48.472;11.934;2022-09-04T09:26:13;73.30;;;5.10;;
4232;SDS011;2130;48.472;11.934;2022-09-04T09:29:13;69.30;;;4.73;;
4232;SDS011;2130;48.472;11.934;2022-09-04T09:41:04;72.20;;;4.93;;
4232;SDS011;2130;48.472;11.934;2022-09-04T09:43:51;70.80;;;5.23;;
4232;SDS011;2130;48.472;11.934;2022-09-04T09:49:55;68.70;;;4.70;;
4232;SDS011;2130;48.472;11.934;2022-09-04T09:56:06;72.20;;;6.03;;
4232;SDS011;2130;48.472;11.934;2022-09-04T10:01:59;69.50;;;5.27;;
4232;SDS011;2130;48.472;11.934;2022-09-04T10:05:02;70.43;;;6.20;;
4232;SDS011;2130;48.472;11.934;2022-09-04T10:10:48;69.80;;;5.30;;
4232;SDS011;2130;48.472;11.934;2022-09-04T10:16:54;74.80;;;6.70;;
4232;SDS011;2130;48.472;11.934;2022-09-04T10:19:40;71.47;;;6.60;;
4232;SDS011;2130;48.472;11.934;2022-09-04T10:28:48;69.60;;;5.57;;
4232;SDS011;2130;48.472;11.934;2022-09-04T10:31:53;70.27;;;5.80;;
4232;SDS011;2130;48.472;11.934;2022-09-04T10:37:54;71.67;;;6.10;;
4232;SDS011;2130;48.472;11.934;2022-09-04T10:40:40;70.07;;;6.13;;
4232;SDS011;2130;48.472;11.934;2022-09-04T10:43:26;70.47;;;6.10;;
4232;SDS011;2130;48.472;11.934;2022-09-04T10:46:14;69.10;;;6.20;;
4232;SDS011;2130;48.472;11.934;2022-09-04T10:49:10;71.00;;;6.20;;
4232;SDS011;2130;48.472;11.934;2022-09-04T10:52:18;70.97;;;6.90;;
4232;SDS011;2130;48.472;11.934;2022-09-04T10:55:15;70.07;;;6.07;;
4232;SDS011;2130;48.472;11.934;2022-09-04T10:57:59;70.17;;;5.80;;
4232;SDS011;2130;48.472;11.934;2022-09-04T11:00:49;70.30;;;6.43;;
4232;SDS011;2130;48.472;11.934;2022-09-04T11:03:33;70.07;;;5.97;;
4232;SDS011;2130;48.472;11.934;2022-09-04T11:06:27;69.90;;;5.93;;
4232;SDS011;2130;48.472;11.934;2022-09-04T11:09:15;73.47;;;7.07;;
4232;SDS011;2130;48.472;11.934;2022-09-04T11:12:06;70.10;;;6.43;;
4232;SDS011;2130;48.472;11.934;2022-09-04T11:14:56;72.20;;;5.93;;
4232;SDS011;2130;48.472;11.934;2022-09-04T11:21:05;69.27;;;5.77;;
4232;SDS011;2130;48.472;11.934;2022-09-04T11:27:06;70.47;;;6.50;;
4232;SDS011;2130;48.472;11.934;2022-09-04T11:29:59;71.60;;;6.37;;
4232;SDS011;2130;48.472;11.934;2022-09-04T11:32:36;70.37;;;5.77;;
4232;SDS011;2130;48.472;11.934;2022-09-04T11:35:33;70.70;;;5.93;;
4232;SDS011;2130;48.472;11.934;2022-09-04T11:38:30;71.00;;;5.43;;
4232;SDS011;2130;48.472;11.934;2022-09-04T11:41:20;69.87;;;5.33;;
4232;SDS011;2130;48.472;11.934;2022-09-04T11:47:28;72.77;;;5.27;;
4232;SDS011;2130;48.472;11.934;2022-09-04T11:50:20;68.30;;;4.63;;
4232;SDS011;2130;48.472;11.934;2022-09-04T11:53:34;70.30;;;5.20;;
4232;SDS011;2130;48.472;11.934;2022-09-04T11:56:16;69.53;;;4.87;;
4232;SDS011;2130;48.472;11.934;2022-09-04T11:59:03;69.77;;;4.67;;
4232;SDS011;2130;48.472;11.934;2022-09-04T12:01:44;70.60;;;5.03;;
4232;SDS011;2130;48.472;11.934;2022-09-04T12:04:32;70.50;;;5.33;;
4232;SDS011;2130;48.472;11.934;2022-09-04T12:07:19;69.47;;;4.50;;
4232;SDS011;2130;48.472;11.934;2022-09-04T12:10:13;69.80;;;5.23;;
4232;SDS011;2130;48.472;11.934;2022-09-04T12:15:59;70.07;;;4.50;;
4232;SDS011;2130;48.472;11.934;2022-09-04T12:18:48;70.23;;;4.90;;
4232;SDS011;2130;48.472;11.934;2022-09-04T12:30:18;70.37;;;4.83;;
4232;SDS011;2130;48.472;11.934;2022-09-04T12:33:05;70.60;;;4.33;;
4232;SDS011;2130;48.472;11.934;2022-09-04T12:35:49;69.20;;;4.23;;
4232;SDS011;2130;48.472;11.934;2022-09-04T12:41:25;69.00;;;4.50;;
4232;SDS011;2130;48.472;11.934;2022-09-04T12:43:58;69.07;;;4.80;;
4232;SDS011;2130;48.472;11.934;2022-09-04T12:46:39;69.50;;;4.47;;
4232;SDS011;2130;48.472;11.934;2022-09-04T12:49:31;70.07;;;4.60;;
4232;SDS011;2130;48.472;11.934;2022-09-04T12:52:11;70.23;;;5.00;;
4232;SDS011;2130;48.472;11.934;2022-09-04T12:54:48;69.87;;;4.90;;
4232;SDS011;2130;48.472;11.934;2022-09-04T12:57:22;69.77;;;4.50;;
4232;SDS011;2130;48.472;11.934;2022-09-04T12:59:59;69.60;;;4.33;;
4232;SDS011;2130;48.472;11.934;2022-09-04T13:02:37;70.90;;;4.60;;
4232;SDS011;2130;48.472;11.934;2022-09-04T13:05:22;70.63;;;4.13;;
4232;SDS011;2130;48.472;11.934;2022-09-04T13:08:17;69.53;;;4.43;;
4232;SDS011;2130;48.472;11.934;2022-09-04T13:10:57;70.00;;;4.17;;
4232;SDS011;2130;48.472;11.934;2022-09-04T13:13:30;70.13;;;4.13;;
4232;SDS011;2130;48.472;11.934;2022-09-04T13:16:08;69.30;;;4.23;;
4232;SDS011;2130;48.472;11.934;2022-09-04T13:18:42;70.73;;;4.10;;
4232;SDS011;2130;48.472;11.934;2022-09-04T13:21:20;69.50;;;4.00;;
4232;SDS011;2130;48.472;11.934;2022-09-04T13:23:58;69.87;;;4.20;;
4232;SDS011;2130;48.472;11.934;2022-09-04T13:26:43;69.60;;;3.93;;
4232;SDS011;2130;48.472;11.934;2022-09-04T13:29:21;70.20;;;4.07;;
4232;SDS011;2130;48.472;11.934;2022-09-04T13:32:06;69.20;;;3.80;;
4232;SDS011;2130;48.472;11.934;2022-09-04T13:34:52;69.50;;;3.83;;
4232;SDS011;2130;48.472;11.934;2022-09-04T13:37:27;69.83;;;3.80;;
4232;SDS011;2130;48.472;11.934;2022-09-04T13:43:14;68.47;;;3.57;;
4232;SDS011;2130;48.472;11.934;2022-09-04T13:45:58;69.40;;;3.87;;
4232;SDS011;2130;48.472;11.934;2022-09-04T13:48:31;69.87;;;3.70;;
4232;SDS011;2130;48.472;11.934;2022-09-04T13:51:04;72.80;;;4.00;;
4232;SDS011;2130;48.472;11.934;2022-09-04T13:53:51;68.53;;;3.30;;
4232;SDS011;2130;48.472;11.934;2022-09-04T13:56:26;68.80;;;3.23;;
4232;SDS011;2130;48.472;11.934;2022-09-04T13:58:58;69.17;;;3.60;;
4232;SDS011;2130;48.472;11.934;2022-09-04T14:01:34;68.00;;;3.37;;
4232;SDS011;2130;48.472;11.934;2022-09-04T14:04:12;69.70;;;3.43;;
4232;SDS011;2130;48.472;11.934;2022-09-04T14:06:42;68.60;;;3.60;;
4232;SDS011;2130;48.472;11.934;2022-09-04T14:09:11;69.40;;;3.53;;
4232;SDS011;2130;48.472;11.934;2022-09-04T14:11:48;68.93;;;3.70;;
4232;SDS011;2130;48.472;11.934;2022-09-04T14:14:39;68.43;;;3.17;;
4232;SDS011;2130;48.472;11.934;2022-09-04T14:17:28;68.70;;;3.50;;
4232;SDS011;2130;48.472;11.934;2022-09-04T14:20:02;68.90;;;3.70;;
4232;SDS011;2130;48.472;11.934;2022-09-04T14:22:40;69.43;;;3.20;;
4232;SDS011;2130;48.472;11.934;2022-09-04T14:25:13;69.77;;;3.70;;
4232;SDS011;2130;48.472;11.934;2022-09-04T14:27:47;69.47;;;3.57;;
4232;SDS011;2130;48.472;11.934;2022-09-04T14:30:23;69.43;;;3.40;;
4232;SDS011;2130;48.472;11.934;2022-09-04T14:32:57;69.67;;;3.60;;
4232;SDS011;2130;48.472;11.934;2022-09-04T14:35:45;69.50;;;3.53;;
4232;SDS011;2130;48.472;11.934;2022-09-04T14:38:27;71.13;;;3.27;;
4232;SDS011;2130;48.472;11.934;2022-09-04T14:41:10;69.00;;;3.40;;
4232;SDS011;2130;48.472;11.934;2022-09-04T14:43:50;68.77;;;3.27;;
4232;SDS011;2130;48.472;11.934;2022-09-04T14:46:32;68.30;;;3.10;;
4232;SDS011;2130;48.472;11.934;2022-09-04T14:49:04;69.20;;;3.17;;
4232;SDS011;2130;48.472;11.934;2022-09-04T14:51:34;69.60;;;3.30;;
4232;SDS011;2130;48.472;11.934;2022-09-04T14:54:04;70.97;;;3.47;;
4232;SDS011;2130;48.472;11.934;2022-09-04T14:56:35;70.60;;;3.17;;
4232;SDS011;2130;48.472;11.934;2022-09-04T14:59:10;68.87;;;3.40;;
4232;SDS011;2130;48.472;11.934;2022-09-04T15:01:59;73.80;;;3.70;;
4232;SDS011;2130;48.472;11.934;2022-09-04T15:04:35;69.00;;;3.27;;
4232;SDS011;2130;48.472;11.934;2022-09-04T15:07:16;69.00;;;3.00;;
4232;SDS011;2130;48.472;11.934;2022-09-04T15:09:50;70.23;;;3.33;;
4232;SDS011;2130;48.472;11.934;2022-09-04T15:12:20;68.07;;;3.10;;
4232;SDS011;2130;48.472;11.934;2022-09-04T15:14:53;68.37;;;3.00;;
4232;SDS011;2130;48.472;11.934;2022-09-04T15:17:27;69.10;;;3.00;;
4232;SDS011;2130;48.472;11.934;2022-09-04T15:19:58;68.00;;;2.93;;
4232;SDS011;2130;48.472;11.934;2022-09-04T15:22:31;69.00;;;3.27;;
4232;SDS011;2130;48.472;11.934;2022-09-04T15:25:04;68.60;;;3.30;;
4232;SDS011;2130;48.472;11.934;2022-09-04T15:27:37;67.77;;;2.63;;
4232;SDS011;2130;48.472;11.934;2022-09-04T15:30:15;68.73;;;3.30;;
4232;SDS011;2130;48.472;11.934;2022-09-04T15:32:46;68.07;;;3.03;;
4232;SDS011;2130;48.472;11.934;2022-09-04T15:35:19;68.07;;;2.70;;
4232;SDS011;2130;48.472;11.934;2022-09-04T15:40:47;67.80;;;2.90;;
4232;SDS011;2130;48.472;11.934;2022-09-04T15:43:38;70.53;;;3.00;;
4232;SDS011;2130;48.472;11.934;2022-09-04T15:46:10;70.37;;;3.07;;
4232;SDS011;2130;48.472;11.934;2022-09-04T15:48:48;68.10;;;2.83;;
4232;SDS011;2130;48.472;11.934;2022-09-04T15:51:22;68.27;;;2.83;;
4232;SDS011;2130;48.472;11.934;2022-09-04T15:56:56;69.00;;;3.17;;
4232;SDS011;2130;48.472;11.934;2022-09-04T16:05:23;69.97;;;3.00;;
4232;SDS011;2130;48.472;11.934;2022-09-04T16:07:54;69.43;;;3.20;;
4232;SDS011;2130;48.472;11.934;2022-09-04T16:10:38;68.17;;;3.20;;
4232;SDS011;2130;48.472;11.934;2022-09-04T16:13:24;69.07;;;3.43;;
4232;SDS011;2130;48.472;11.934;2022-09-04T16:16:10;68.00;;;3.30;;
4232;SDS011;2130;48.472;11.934;2022-09-04T16:18:54;68.40;;;3.47;;
4232;SDS011;2130;48.472;11.934;2022-09-04T16:21:34;68.60;;;3.20;;
4232;SDS011;2130;48.472;11.934;2022-09-04T16:24:07;68.17;;;3.43;;
4232;SDS011;2130;48.472;11.934;2022-09-04T16:26:39;67.43;;;3.33;;
4232;SDS011;2130;48.472;11.934;2022-09-04T16:29:10;68.83;;;3.70;;
4232;SDS011;2130;48.472;11.934;2022-09-04T16:31:41;73.75;;;4.03;;
4232;SDS011;2130;48.472;11.934;2022-09-04T16:34:19;69.43;;;3.97;;
4232;SDS011;2130;48.472;11.934;2022-09-04T16:36:50;69.00;;;3.43;;
4232;SDS011;2130;48.472;11.934;2022-09-04T16:39:24;68.80;;;3.40;;
4232;SDS011;2130;48.472;11.934;2022-09-04T16:41:56;69.47;;;3.77;;
4232;SDS011;2130;48.472;11.934;2022-09-04T16:44:26;67.60;;;3.47;;
4232;SDS011;2130;48.472;11.934;2022-09-04T16:47:01;69.00;;;3.83;;
4232;SDS011;2130;48.472;11.934;2022-09-04T16:49:38;68.37;;;3.47;;
4232;SDS011;2130;48.472;11.934;2022-09-04T16:52:21;68.33;;;3.50;;
4232;SDS011;2130;48.472;11.934;2022-09-04T16:55:00;70.50;;;3.40;;
4232;SDS011;2130;48.472;11.934;2022-09-04T16:57:35;67.87;;;3.60;;
4232;SDS011;2130;48.472;11.934;2022-09-04T17:00:07;68.07;;;3.70;;
4232;SDS011;2130;48.472;11.934;2022-09-04T17:02:40;69.17;;;3.53;;
4232;SDS011;2130;48.472;11.934;2022-09-04T17:05:13;68.03;;;3.50;;
4232;SDS011;2130;48.472;11.934;2022-09-04T17:07:50;68.33;;;3.80;;
4232;SDS011;2130;48.472;11.934;2022-09-04T17:10:34;69.10;;;3.87;;
4232;SDS011;2130;48.472;11.934;2022-09-04T17:13:09;68.07;;;3.50;;
4232;SDS011;2130;48.472;11.934;2022-09-04T17:15:41;68.30;;;3.30;;
4232;SDS011;2130;48.472;11.934;2022-09-04T17:18:19;67.77;;;3.30;;
4232;SDS011;2130;48.472;11.934;2022-09-04T17:20:52;68.10;;;3.70;;
4232;SDS011;2130;48.472;11.934;2022-09-04T17:23:47;68.00;;;3.70;;
4232;SDS011;2130;48.472;11.934;2022-09-04T17:26:42;67.60;;;3.40;;
4232;SDS011;2130;48.472;11.934;2022-09-04T17:29:31;67.40;;;3.50;;
4232;SDS011;2130;48.472;11.934;2022-09-04T17:32:12;67.07;;;3.40;;
4232;SDS011;2130;48.472;11.934;2022-09-04T17:35:07;70.30;;;3.30;;
4232;SDS011;2130;48.472;11.934;2022-09-04T17:38:03;68.50;;;3.67;;
4232;SDS011;2130;48.472;11.934;2022-09-04T17:40:59;68.40;;;3.33;;
4232;SDS011;2130;48.472;11.934;2022-09-04T17:43:59;68.37;;;3.87;;
4232;SDS011;2130;48.472;11.934;2022-09-04T17:46:36;68.67;;;3.57;;